sensor_id;sensor_type;location;lat;lon;timestamp;P1;durP1;ratioP1;P2;durP2;ratioP2
36225;SDS011;22268;52.010;4.716;2023-05-10T00:00:53;127.15;;;51.37;;
36225;SDS011;22268;52.010;4.716;2023-05-10T00:03:18;132.20;;;56.65;;
36225;SDS011;22268;52.010;4.716;2023-05-10T00:05:43;124.03;;;52.00;;
36225;SDS011;22268;52.010;4.716;2023-05-10T00:08:08;121.80;;;50.85;;
36225;SDS011;22268;52.010;4.716;2023-05-10T00:10:34;108.72;;;50.42;;
36225;SDS011;22268;52.010;4.716;2023-05-10T00:12:59;116.93;;;51.28;;
36225;SDS011;22268;52.010;4.716;2023-05-10T00:15:24;144.95;;;58.42;;
36225;SDS011;22268;52.010;4.716;2023-05-10T00:17:50;104.20;;;48.53;;
36225;SDS011;22268;52.010;4.716;2023-05-10T00:20:15;114.70;;;50.97;;
36225;SDS011;22268;52.010;4.716;2023-05-10T00:22:40;136.93;;;55.25;;
36225;SDS011;22268;52.010;4.716;2023-05-10T00:25:06;130.68;;;54.38;;
36225;SDS011;22268;52.010;4.716;2023-05-10T00:27:31;101.57;;;49.10;;
36225;SDS011;22268;52.010;4.716;2023-05-10T00:32:21;172.60;;;59.38;;
36225;SDS011;22268;52.010;4.716;2023-05-10T00:34:46;124.40;;;49.92;;
36225;SDS011;22268;52.010;4.716;2023-05-10T00:37:12;129.15;;;51.60;;
36225;SDS011;22268;52.010;4.716;2023-05-10T00:39:37;121.25;;;52.33;;
36225;SDS011;22268;52.010;4.716;2023-05-10T00:42:02;116.10;;;50.67;;
36225;SDS011;22268;52.010;4.716;2023-05-10T00:44:29;152.38;;;55.75;;
36225;SDS011;22268;52.010;4.716;2023-05-10T00:46:55;109.95;;;49.40;;
36225;SDS011;22268;52.010;4.716;2023-05-10T00:51:46;123.32;;;51.15;;
36225;SDS011;22268;52.010;4.716;2023-05-10T00:56:36;120.53;;;54.55;;
36225;SDS011;22268;52.010;4.716;2023-05-10T00:59:01;122.87;;;56.17;;
36225;SDS011;22268;52.010;4.716;2023-05-10T01:01:27;139.93;;;57.40;;
36225;SDS011;22268;52.010;4.716;2023-05-10T01:03:53;107.82;;;53.42;;
36225;SDS011;22268;52.010;4.716;2023-05-10T01:08:44;155.98;;;62.42;;
36225;SDS011;22268;52.010;4.716;2023-05-10T01:11:09;138.70;;;59.47;;
36225;SDS011;22268;52.010;4.716;2023-05-10T01:15:59;132.87;;;57.22;;
36225;SDS011;22268;52.010;4.716;2023-05-10T01:18:27;142.57;;;58.70;;
36225;SDS011;22268;52.010;4.716;2023-05-10T01:25:51;160.35;;;64.68;;
36225;SDS011;22268;52.010;4.716;2023-05-10T01:33:30;156.70;;;66.25;;
36225;SDS011;22268;52.010;4.716;2023-05-10T01:38:51;140.60;;;62.45;;
36225;SDS011;22268;52.010;4.716;2023-05-10T01:41:21;143.20;;;61.53;;
36225;SDS011;22268;52.010;4.716;2023-05-10T01:43:51;150.10;;;62.35;;
36225;SDS011;22268;52.010;4.716;2023-05-10T01:46:20;125.38;;;59.30;;
36225;SDS011;22268;52.010;4.716;2023-05-10T01:48:48;113.93;;;53.60;;
36225;SDS011;22268;52.010;4.716;2023-05-10T01:51:16;139.70;;;61.67;;
36225;SDS011;22268;52.010;4.716;2023-05-10T01:53:44;132.65;;;58.60;;
36225;SDS011;22268;52.010;4.716;2023-05-10T01:56:11;160.18;;;65.15;;
36225;SDS011;22268;52.010;4.716;2023-05-10T02:01:03;108.90;;;51.60;;
36225;SDS011;22268;52.010;4.716;2023-05-10T02:03:28;142.05;;;61.03;;
36225;SDS011;22268;52.010;4.716;2023-05-10T02:08:19;127.97;;;57.33;;
36225;SDS011;22268;52.010;4.716;2023-05-10T02:10:46;129.98;;;62.08;;
36225;SDS011;22268;52.010;4.716;2023-05-10T02:15:37;114.57;;;55.95;;
36225;SDS011;22268;52.010;4.716;2023-05-10T02:18:03;150.98;;;63.90;;
36225;SDS011;22268;52.010;4.716;2023-05-10T02:20:29;129.18;;;61.47;;
36225;SDS011;22268;52.010;4.716;2023-05-10T02:22:56;137.18;;;61.63;;
36225;SDS011;22268;52.010;4.716;2023-05-10T02:25:22;128.85;;;58.72;;
36225;SDS011;22268;52.010;4.716;2023-05-10T02:27:48;128.65;;;61.13;;
36225;SDS011;22268;52.010;4.716;2023-05-10T02:32:38;120.70;;;58.60;;
36225;SDS011;22268;52.010;4.716;2023-05-10T02:35:04;143.62;;;64.93;;
36225;SDS011;22268;52.010;4.716;2023-05-10T02:37:30;133.37;;;63.17;;
36225;SDS011;22268;52.010;4.716;2023-05-10T02:39:55;137.05;;;63.38;;
36225;SDS011;22268;52.010;4.716;2023-05-10T02:42:25;127.43;;;61.05;;
36225;SDS011;22268;52.010;4.716;2023-05-10T02:44:52;114.18;;;57.70;;
36225;SDS011;22268;52.010;4.716;2023-05-10T02:47:18;113.75;;;59.40;;
36225;SDS011;22268;52.010;4.716;2023-05-10T02:52:08;112.32;;;56.67;;
36225;SDS011;22268;52.010;4.716;2023-05-10T02:54:36;149.32;;;67.65;;
36225;SDS011;22268;52.010;4.716;2023-05-10T02:57:04;141.27;;;67.00;;
36225;SDS011;22268;52.010;4.716;2023-05-10T02:59:30;128.48;;;62.47;;
36225;SDS011;22268;52.010;4.716;2023-05-10T03:01:57;119.55;;;58.03;;
36225;SDS011;22268;52.010;4.716;2023-05-10T03:04:23;138.85;;;62.97;;
36225;SDS011;22268;52.010;4.716;2023-05-10T03:06:48;136.73;;;66.18;;
36225;SDS011;22268;52.010;4.716;2023-05-10T03:09:13;137.85;;;64.47;;
36225;SDS011;22268;52.010;4.716;2023-05-10T03:14:27;111.88;;;60.28;;
36225;SDS011;22268;52.010;4.716;2023-05-10T03:16:59;103.62;;;58.63;;
36225;SDS011;22268;52.010;4.716;2023-05-10T03:19:32;130.00;;;70.50;;
36225;SDS011;22268;52.010;4.716;2023-05-10T03:21:59;128.05;;;70.00;;
36225;SDS011;22268;52.010;4.716;2023-05-10T03:24:28;122.55;;;70.12;;
36225;SDS011;22268;52.010;4.716;2023-05-10T03:26:55;113.80;;;67.00;;
36225;SDS011;22268;52.010;4.716;2023-05-10T03:29:21;122.25;;;70.20;;
36225;SDS011;22268;52.010;4.716;2023-05-10T03:31:47;128.32;;;72.03;;
36225;SDS011;22268;52.010;4.716;2023-05-10T03:34:12;116.18;;;65.00;;
36225;SDS011;22268;52.010;4.716;2023-05-10T03:36:37;119.00;;;61.80;;
36225;SDS011;22268;52.010;4.716;2023-05-10T03:39:02;96.90;;;53.95;;
36225;SDS011;22268;52.010;4.716;2023-05-10T03:41:27;93.97;;;53.63;;
36225;SDS011;22268;52.010;4.716;2023-05-10T03:43:53;103.32;;;56.78;;
36225;SDS011;22268;52.010;4.716;2023-05-10T03:46:18;117.53;;;59.60;;
36225;SDS011;22268;52.010;4.716;2023-05-10T03:48:43;108.80;;;59.50;;
36225;SDS011;22268;52.010;4.716;2023-05-10T03:51:09;120.78;;;64.45;;
36225;SDS011;22268;52.010;4.716;2023-05-10T03:53:34;103.65;;;57.75;;
36225;SDS011;22268;52.010;4.716;2023-05-10T03:55:59;119.65;;;64.03;;
36225;SDS011;22268;52.010;4.716;2023-05-10T03:58:24;122.35;;;64.80;;
36225;SDS011;22268;52.010;4.716;2023-05-10T04:00:50;132.90;;;64.97;;
36225;SDS011;22268;52.010;4.716;2023-05-10T04:03:16;140.62;;;69.32;;
36225;SDS011;22268;52.010;4.716;2023-05-10T04:05:41;126.75;;;67.28;;
36225;SDS011;22268;52.010;4.716;2023-05-10T04:08:06;138.23;;;68.25;;
36225;SDS011;22268;52.010;4.716;2023-05-10T04:10:31;120.40;;;66.60;;
36225;SDS011;22268;52.010;4.716;2023-05-10T04:12:56;125.82;;;65.10;;
36225;SDS011;22268;52.010;4.716;2023-05-10T04:15:22;137.30;;;68.72;;
36225;SDS011;22268;52.010;4.716;2023-05-10T04:17:47;111.15;;;62.60;;
36225;SDS011;22268;52.010;4.716;2023-05-10T04:20:12;115.55;;;65.50;;
36225;SDS011;22268;52.010;4.716;2023-05-10T04:22:37;114.00;;;62.90;;
36225;SDS011;22268;52.010;4.716;2023-05-10T04:25:03;92.88;;;56.45;;
36225;SDS011;22268;52.010;4.716;2023-05-10T04:27:29;105.87;;;63.53;;
36225;SDS011;22268;52.010;4.716;2023-05-10T04:29:54;119.60;;;69.43;;
36225;SDS011;22268;52.010;4.716;2023-05-10T04:32:19;112.35;;;65.15;;
36225;SDS011;22268;52.010;4.716;2023-05-10T04:34:45;111.10;;;68.12;;
36225;SDS011;22268;52.010;4.716;2023-05-10T04:37:10;118.93;;;71.70;;
36225;SDS011;22268;52.010;4.716;2023-05-10T04:39:35;115.35;;;70.15;;
36225;SDS011;22268;52.010;4.716;2023-05-10T04:42:01;117.68;;;70.40;;
36225;SDS011;22268;52.010;4.716;2023-05-10T04:44:27;102.25;;;66.70;;
36225;SDS011;22268;52.010;4.716;2023-05-10T04:49:17;102.40;;;67.75;;
36225;SDS011;22268;52.010;4.716;2023-05-10T04:51:43;109.45;;;65.07;;
36225;SDS011;22268;52.010;4.716;2023-05-10T04:54:08;107.57;;;65.80;;
36225;SDS011;22268;52.010;4.716;2023-05-10T04:56:33;100.40;;;59.92;;
36225;SDS011;22268;52.010;4.716;2023-05-10T04:58:58;120.75;;;72.45;;
36225;SDS011;22268;52.010;4.716;2023-05-10T05:01:23;95.80;;;62.03;;
36225;SDS011;22268;52.010;4.716;2023-05-10T05:03:49;73.72;;;49.30;;
36225;SDS011;22268;52.010;4.716;2023-05-10T05:06:14;67.32;;;45.78;;
36225;SDS011;22268;52.010;4.716;2023-05-10T05:08:39;60.17;;;42.62;;
36225;SDS011;22268;52.010;4.716;2023-05-10T05:11:04;69.90;;;46.28;;
36225;SDS011;22268;52.010;4.716;2023-05-10T05:13:29;72.28;;;45.67;;
36225;SDS011;22268;52.010;4.716;2023-05-10T05:15:55;73.20;;;49.08;;
36225;SDS011;22268;52.010;4.716;2023-05-10T05:18:20;74.57;;;47.05;;
36225;SDS011;22268;52.010;4.716;2023-05-10T05:20:45;79.70;;;47.50;;
36225;SDS011;22268;52.010;4.716;2023-05-10T05:23:10;80.82;;;47.80;;
36225;SDS011;22268;52.010;4.716;2023-05-10T05:25:35;75.07;;;44.10;;
36225;SDS011;22268;52.010;4.716;2023-05-10T05:28:01;57.55;;;37.58;;
36225;SDS011;22268;52.010;4.716;2023-05-10T05:30:26;55.38;;;37.75;;
36225;SDS011;22268;52.010;4.716;2023-05-10T05:32:51;54.60;;;32.65;;
36225;SDS011;22268;52.010;4.716;2023-05-10T05:35:17;52.05;;;33.45;;
36225;SDS011;22268;52.010;4.716;2023-05-10T05:37:42;54.72;;;32.08;;
36225;SDS011;22268;52.010;4.716;2023-05-10T05:40:07;52.05;;;31.83;;
36225;SDS011;22268;52.010;4.716;2023-05-10T05:42:33;46.88;;;31.27;;
36225;SDS011;22268;52.010;4.716;2023-05-10T05:44:58;47.42;;;30.23;;
36225;SDS011;22268;52.010;4.716;2023-05-10T05:47:23;56.70;;;34.10;;
36225;SDS011;22268;52.010;4.716;2023-05-10T05:49:49;54.17;;;32.95;;
36225;SDS011;22268;52.010;4.716;2023-05-10T05:52:14;55.42;;;35.08;;
36225;SDS011;22268;52.010;4.716;2023-05-10T05:54:39;58.22;;;33.90;;
36225;SDS011;22268;52.010;4.716;2023-05-10T05:57:04;53.58;;;29.90;;
36225;SDS011;22268;52.010;4.716;2023-05-10T05:59:29;46.25;;;28.58;;
36225;SDS011;22268;52.010;4.716;2023-05-10T06:01:55;40.47;;;23.40;;
36225;SDS011;22268;52.010;4.716;2023-05-10T06:04:20;38.17;;;23.55;;
36225;SDS011;22268;52.010;4.716;2023-05-10T06:06:45;39.58;;;23.40;;
36225;SDS011;22268;52.010;4.716;2023-05-10T06:09:10;40.33;;;24.35;;
36225;SDS011;22268;52.010;4.716;2023-05-10T06:11:36;38.75;;;22.98;;
36225;SDS011;22268;52.010;4.716;2023-05-10T06:14:01;36.03;;;21.75;;
36225;SDS011;22268;52.010;4.716;2023-05-10T06:16:28;38.05;;;23.10;;
36225;SDS011;22268;52.010;4.716;2023-05-10T06:18:53;42.70;;;22.13;;
36225;SDS011;22268;52.010;4.716;2023-05-10T06:21:19;33.38;;;21.25;;
36225;SDS011;22268;52.010;4.716;2023-05-10T06:23:44;33.28;;;20.85;;
36225;SDS011;22268;52.010;4.716;2023-05-10T06:26:09;38.42;;;21.60;;
36225;SDS011;22268;52.010;4.716;2023-05-10T06:28:35;39.90;;;23.10;;
36225;SDS011;22268;52.010;4.716;2023-05-10T06:31:00;33.55;;;20.33;;
36225;SDS011;22268;52.010;4.716;2023-05-10T06:33:25;31.00;;;18.87;;
36225;SDS011;22268;52.010;4.716;2023-05-10T06:35:50;30.42;;;18.30;;
36225;SDS011;22268;52.010;4.716;2023-05-10T06:38:15;23.67;;;15.77;;
36225;SDS011;22268;52.010;4.716;2023-05-10T06:40:41;20.42;;;14.60;;
36225;SDS011;22268;52.010;4.716;2023-05-10T06:43:07;18.85;;;13.25;;
36225;SDS011;22268;52.010;4.716;2023-05-10T06:45:32;16.42;;;12.37;;
36225;SDS011;22268;52.010;4.716;2023-05-10T06:47:57;22.40;;;13.75;;
36225;SDS011;22268;52.010;4.716;2023-05-10T06:50:22;13.18;;;9.85;;
36225;SDS011;22268;52.010;4.716;2023-05-10T06:52:47;15.60;;;11.93;;
36225;SDS011;22268;52.010;4.716;2023-05-10T06:55:12;11.93;;;9.52;;
36225;SDS011;22268;52.010;4.716;2023-05-10T06:57:38;18.27;;;11.00;;
36225;SDS011;22268;52.010;4.716;2023-05-10T07:00:03;11.30;;;9.02;;
36225;SDS011;22268;52.010;4.716;2023-05-10T07:02:31;14.25;;;10.57;;
36225;SDS011;22268;52.010;4.716;2023-05-10T07:04:57;10.32;;;9.00;;
36225;SDS011;22268;52.010;4.716;2023-05-10T07:07:22;9.75;;;8.35;;
36225;SDS011;22268;52.010;4.716;2023-05-10T07:09:47;17.98;;;8.85;;
36225;SDS011;22268;52.010;4.716;2023-05-10T07:12:13;13.70;;;8.55;;
36225;SDS011;22268;52.010;4.716;2023-05-10T07:14:39;15.13;;;8.77;;
36225;SDS011;22268;52.010;4.716;2023-05-10T07:17:04;14.43;;;7.70;;
36225;SDS011;22268;52.010;4.716;2023-05-10T07:19:29;11.32;;;8.95;;
36225;SDS011;22268;52.010;4.716;2023-05-10T07:21:54;10.68;;;8.68;;
36225;SDS011;22268;52.010;4.716;2023-05-10T07:24:20;10.02;;;8.07;;
36225;SDS011;22268;52.010;4.716;2023-05-10T07:26:45;9.30;;;7.57;;
36225;SDS011;22268;52.010;4.716;2023-05-10T07:29:10;8.77;;;7.10;;
36225;SDS011;22268;52.010;4.716;2023-05-10T07:31:35;9.88;;;8.23;;
36225;SDS011;22268;52.010;4.716;2023-05-10T07:34:01;11.12;;;9.50;;
36225;SDS011;22268;52.010;4.716;2023-05-10T07:36:26;12.55;;;8.15;;
36225;SDS011;22268;52.010;4.716;2023-05-10T07:38:51;12.00;;;8.27;;
36225;SDS011;22268;52.010;4.716;2023-05-10T07:41:16;18.83;;;10.23;;
36225;SDS011;22268;52.010;4.716;2023-05-10T07:43:41;10.80;;;8.00;;
36225;SDS011;22268;52.010;4.716;2023-05-10T07:46:06;9.55;;;6.30;;
36225;SDS011;22268;52.010;4.716;2023-05-10T07:48:32;11.98;;;8.18;;
36225;SDS011;22268;52.010;4.716;2023-05-10T07:50:57;9.60;;;7.25;;
36225;SDS011;22268;52.010;4.716;2023-05-10T07:53:22;9.95;;;7.47;;
36225;SDS011;22268;52.010;4.716;2023-05-10T07:55:51;9.23;;;6.93;;
36225;SDS011;22268;52.010;4.716;2023-05-10T07:58:19;8.32;;;6.47;;
36225;SDS011;22268;52.010;4.716;2023-05-10T08:00:44;10.05;;;7.10;;
36225;SDS011;22268;52.010;4.716;2023-05-10T08:03:09;9.68;;;7.25;;
36225;SDS011;22268;52.010;4.716;2023-05-10T08:05:35;10.80;;;8.45;;
36225;SDS011;22268;52.010;4.716;2023-05-10T08:08:00;8.95;;;7.20;;
36225;SDS011;22268;52.010;4.716;2023-05-10T08:10:25;11.90;;;7.90;;
36225;SDS011;22268;52.010;4.716;2023-05-10T08:12:50;8.90;;;7.15;;
36225;SDS011;22268;52.010;4.716;2023-05-10T08:15:15;8.38;;;7.45;;
36225;SDS011;22268;52.010;4.716;2023-05-10T08:17:41;9.95;;;7.30;;
36225;SDS011;22268;52.010;4.716;2023-05-10T08:20:06;11.32;;;7.62;;
36225;SDS011;22268;52.010;4.716;2023-05-10T08:22:32;10.68;;;7.05;;
36225;SDS011;22268;52.010;4.716;2023-05-10T08:24:57;10.32;;;8.32;;
36225;SDS011;22268;52.010;4.716;2023-05-10T08:27:23;10.85;;;7.80;;
36225;SDS011;22268;52.010;4.716;2023-05-10T08:29:48;10.10;;;7.30;;
36225;SDS011;22268;52.010;4.716;2023-05-10T08:32:13;13.20;;;7.05;;
36225;SDS011;22268;52.010;4.716;2023-05-10T08:34:38;11.88;;;7.97;;
36225;SDS011;22268;52.010;4.716;2023-05-10T08:37:04;11.98;;;8.38;;
36225;SDS011;22268;52.010;4.716;2023-05-10T08:39:29;13.18;;;8.45;;
36225;SDS011;22268;52.010;4.716;2023-05-10T08:41:54;11.07;;;8.80;;
36225;SDS011;22268;52.010;4.716;2023-05-10T08:44:22;11.43;;;7.80;;
36225;SDS011;22268;52.010;4.716;2023-05-10T08:46:48;9.55;;;7.07;;
36225;SDS011;22268;52.010;4.716;2023-05-10T08:49:17;11.85;;;7.22;;
36225;SDS011;22268;52.010;4.716;2023-05-10T08:51:47;10.98;;;7.62;;
36225;SDS011;22268;52.010;4.716;2023-05-10T08:54:14;12.37;;;7.78;;
36225;SDS011;22268;52.010;4.716;2023-05-10T08:56:39;16.77;;;7.82;;
36225;SDS011;22268;52.010;4.716;2023-05-10T08:59:05;13.62;;;8.60;;
36225;SDS011;22268;52.010;4.716;2023-05-10T09:01:31;13.90;;;7.82;;
36225;SDS011;22268;52.010;4.716;2023-05-10T09:03:56;16.73;;;9.38;;
36225;SDS011;22268;52.010;4.716;2023-05-10T09:06:21;15.25;;;7.87;;
36225;SDS011;22268;52.010;4.716;2023-05-10T09:08:47;14.02;;;8.43;;
36225;SDS011;22268;52.010;4.716;2023-05-10T09:11:12;14.38;;;9.48;;
36225;SDS011;22268;52.010;4.716;2023-05-10T09:13:38;12.52;;;9.43;;
36225;SDS011;22268;52.010;4.716;2023-05-10T09:16:03;15.32;;;8.82;;
36225;SDS011;22268;52.010;4.716;2023-05-10T09:18:29;11.35;;;8.38;;
36225;SDS011;22268;52.010;4.716;2023-05-10T09:20:54;11.02;;;7.32;;
36225;SDS011;22268;52.010;4.716;2023-05-10T09:23:19;16.83;;;8.20;;
36225;SDS011;22268;52.010;4.716;2023-05-10T09:25:44;10.63;;;8.68;;
36225;SDS011;22268;52.010;4.716;2023-05-10T09:28:10;13.07;;;8.32;;
36225;SDS011;22268;52.010;4.716;2023-05-10T09:30:36;10.57;;;7.57;;
36225;SDS011;22268;52.010;4.716;2023-05-10T09:33:01;10.32;;;7.72;;
36225;SDS011;22268;52.010;4.716;2023-05-10T09:35:27;13.48;;;7.70;;
36225;SDS011;22268;52.010;4.716;2023-05-10T09:37:53;11.35;;;7.40;;
36225;SDS011;22268;52.010;4.716;2023-05-10T09:40:20;10.30;;;7.07;;
36225;SDS011;22268;52.010;4.716;2023-05-10T09:45:17;10.85;;;7.30;;
36225;SDS011;22268;52.010;4.716;2023-05-10T09:47:42;10.48;;;7.12;;
36225;SDS011;22268;52.010;4.716;2023-05-10T09:50:08;12.30;;;7.75;;
36225;SDS011;22268;52.010;4.716;2023-05-10T09:52:47;13.40;;;8.80;;
36225;SDS011;22268;52.010;4.716;2023-05-10T09:55:12;10.85;;;8.05;;
36225;SDS011;22268;52.010;4.716;2023-05-10T09:57:37;10.45;;;6.95;;
36225;SDS011;22268;52.010;4.716;2023-05-10T10:00:04;10.85;;;7.70;;
36225;SDS011;22268;52.010;4.716;2023-05-10T10:02:30;12.30;;;8.05;;
36225;SDS011;22268;52.010;4.716;2023-05-10T10:04:55;11.57;;;6.43;;
36225;SDS011;22268;52.010;4.716;2023-05-10T10:07:24;10.82;;;8.18;;
36225;SDS011;22268;52.010;4.716;2023-05-10T10:09:52;11.73;;;7.90;;
36225;SDS011;22268;52.010;4.716;2023-05-10T10:12:18;11.02;;;7.62;;
36225;SDS011;22268;52.010;4.716;2023-05-10T10:14:44;11.07;;;7.57;;
36225;SDS011;22268;52.010;4.716;2023-05-10T10:17:09;12.40;;;6.93;;
36225;SDS011;22268;52.010;4.716;2023-05-10T10:19:35;10.73;;;6.62;;
36225;SDS011;22268;52.010;4.716;2023-05-10T10:22:00;10.95;;;7.20;;
36225;SDS011;22268;52.010;4.716;2023-05-10T10:24:25;10.13;;;6.85;;
36225;SDS011;22268;52.010;4.716;2023-05-10T10:26:52;11.23;;;7.65;;
36225;SDS011;22268;52.010;4.716;2023-05-10T10:29:31;13.95;;;12.48;;
36225;SDS011;22268;52.010;4.716;2023-05-10T10:34:59;19.70;;;12.25;;
36225;SDS011;22268;52.010;4.716;2023-05-10T10:37:40;15.90;;;13.02;;
36225;SDS011;22268;52.010;4.716;2023-05-10T10:42:50;11.20;;;9.10;;
36225;SDS011;22268;52.010;4.716;2023-05-10T10:45:16;9.45;;;6.90;;
36225;SDS011;22268;52.010;4.716;2023-05-10T10:47:41;10.68;;;6.65;;
36225;SDS011;22268;52.010;4.716;2023-05-10T10:50:08;10.63;;;7.80;;
36225;SDS011;22268;52.010;4.716;2023-05-10T10:55:00;8.32;;;6.28;;
36225;SDS011;22268;52.010;4.716;2023-05-10T10:57:26;8.85;;;6.03;;
36225;SDS011;22268;52.010;4.716;2023-05-10T10:59:53;7.60;;;6.07;;
36225;SDS011;22268;52.010;4.716;2023-05-10T11:02:43;7.85;;;6.70;;
36225;SDS011;22268;52.010;4.716;2023-05-10T11:07:55;11.52;;;7.62;;
36225;SDS011;22268;52.010;4.716;2023-05-10T11:10:21;15.32;;;10.00;;
36225;SDS011;22268;52.010;4.716;2023-05-10T11:15:19;15.43;;;9.65;;
36225;SDS011;22268;52.010;4.716;2023-05-10T11:17:44;17.65;;;11.40;;
36225;SDS011;22268;52.010;4.716;2023-05-10T11:20:14;16.30;;;10.30;;
36225;SDS011;22268;52.010;4.716;2023-05-10T11:22:49;11.95;;;9.55;;
36225;SDS011;22268;52.010;4.716;2023-05-10T11:25:14;18.17;;;11.43;;
36225;SDS011;22268;52.010;4.716;2023-05-10T11:27:40;15.23;;;10.40;;
36225;SDS011;22268;52.010;4.716;2023-05-10T11:30:06;15.85;;;9.77;;
36225;SDS011;22268;52.010;4.716;2023-05-10T11:32:31;14.50;;;9.88;;
36225;SDS011;22268;52.010;4.716;2023-05-10T11:34:56;21.37;;;10.68;;
36225;SDS011;22268;52.010;4.716;2023-05-10T11:37:22;13.10;;;9.70;;
36225;SDS011;22268;52.010;4.716;2023-05-10T11:39:47;15.30;;;10.10;;
36225;SDS011;22268;52.010;4.716;2023-05-10T11:42:12;11.43;;;8.65;;
36225;SDS011;22268;52.010;4.716;2023-05-10T11:44:37;12.98;;;9.02;;
36225;SDS011;22268;52.010;4.716;2023-05-10T11:47:03;11.45;;;8.68;;
36225;SDS011;22268;52.010;4.716;2023-05-10T11:49:28;7.78;;;6.95;;
36225;SDS011;22268;52.010;4.716;2023-05-10T11:51:53;9.95;;;6.90;;
36225;SDS011;22268;52.010;4.716;2023-05-10T11:54:28;8.50;;;5.82;;
36225;SDS011;22268;52.010;4.716;2023-05-10T11:56:53;7.78;;;5.72;;
36225;SDS011;22268;52.010;4.716;2023-05-10T11:59:19;6.72;;;6.03;;
36225;SDS011;22268;52.010;4.716;2023-05-10T12:01:44;7.87;;;6.40;;
36225;SDS011;22268;52.010;4.716;2023-05-10T12:04:09;8.50;;;7.37;;
36225;SDS011;22268;52.010;4.716;2023-05-10T12:06:37;10.25;;;7.43;;
36225;SDS011;22268;52.010;4.716;2023-05-10T12:09:06;14.57;;;9.13;;
36225;SDS011;22268;52.010;4.716;2023-05-10T12:11:31;12.00;;;8.00;;
36225;SDS011;22268;52.010;4.716;2023-05-10T12:13:56;9.63;;;7.43;;
36225;SDS011;22268;52.010;4.716;2023-05-10T12:16:23;9.68;;;7.65;;
36225;SDS011;22268;52.010;4.716;2023-05-10T12:18:48;11.12;;;8.05;;
36225;SDS011;22268;52.010;4.716;2023-05-10T12:21:14;13.77;;;8.45;;
36225;SDS011;22268;52.010;4.716;2023-05-10T12:23:40;10.07;;;7.15;;
36225;SDS011;22268;52.010;4.716;2023-05-10T12:26:05;19.55;;;9.60;;
36225;SDS011;22268;52.010;4.716;2023-05-10T12:28:31;9.75;;;7.93;;
36225;SDS011;22268;52.010;4.716;2023-05-10T12:30:59;10.40;;;7.85;;
36225;SDS011;22268;52.010;4.716;2023-05-10T12:33:25;10.65;;;7.53;;
36225;SDS011;22268;52.010;4.716;2023-05-10T12:35:51;10.00;;;7.85;;
36225;SDS011;22268;52.010;4.716;2023-05-10T12:38:33;12.35;;;8.02;;
36225;SDS011;22268;52.010;4.716;2023-05-10T12:40:59;9.10;;;7.15;;
36225;SDS011;22268;52.010;4.716;2023-05-10T12:43:24;10.73;;;7.25;;
36225;SDS011;22268;52.010;4.716;2023-05-10T12:45:50;8.55;;;6.12;;
36225;SDS011;22268;52.010;4.716;2023-05-10T12:48:15;11.88;;;7.20;;
36225;SDS011;22268;52.010;4.716;2023-05-10T12:50:40;10.25;;;7.85;;
36225;SDS011;22268;52.010;4.716;2023-05-10T12:53:05;12.85;;;7.05;;
36225;SDS011;22268;52.010;4.716;2023-05-10T12:55:31;12.57;;;7.65;;
36225;SDS011;22268;52.010;4.716;2023-05-10T12:57:56;8.73;;;7.03;;
36225;SDS011;22268;52.010;4.716;2023-05-10T13:00:21;7.03;;;5.70;;
36225;SDS011;22268;52.010;4.716;2023-05-10T13:02:46;10.55;;;5.55;;
36225;SDS011;22268;52.010;4.716;2023-05-10T13:05:11;12.65;;;6.15;;
36225;SDS011;22268;52.010;4.716;2023-05-10T13:07:38;9.15;;;6.55;;
36225;SDS011;22268;52.010;4.716;2023-05-10T13:10:03;10.20;;;6.57;;
36225;SDS011;22268;52.010;4.716;2023-05-10T13:12:28;10.05;;;6.70;;
36225;SDS011;22268;52.010;4.716;2023-05-10T13:14:54;12.75;;;7.68;;
36225;SDS011;22268;52.010;4.716;2023-05-10T13:17:19;8.13;;;6.68;;
36225;SDS011;22268;52.010;4.716;2023-05-10T13:19:44;12.70;;;7.70;;
36225;SDS011;22268;52.010;4.716;2023-05-10T13:22:10;13.05;;;8.70;;
36225;SDS011;22268;52.010;4.716;2023-05-10T13:24:35;11.27;;;7.78;;
36225;SDS011;22268;52.010;4.716;2023-05-10T13:27:00;12.00;;;8.25;;
36225;SDS011;22268;52.010;4.716;2023-05-10T13:29:25;13.68;;;7.62;;
36225;SDS011;22268;52.010;4.716;2023-05-10T13:31:50;10.13;;;7.40;;
36225;SDS011;22268;52.010;4.716;2023-05-10T13:34:16;13.00;;;7.30;;
36225;SDS011;22268;52.010;4.716;2023-05-10T13:36:41;13.45;;;7.85;;
36225;SDS011;22268;52.010;4.716;2023-05-10T13:39:06;11.48;;;9.00;;
36225;SDS011;22268;52.010;4.716;2023-05-10T13:41:32;15.80;;;9.43;;
36225;SDS011;22268;52.010;4.716;2023-05-10T13:43:57;12.55;;;9.27;;
36225;SDS011;22268;52.010;4.716;2023-05-10T13:46:22;11.82;;;8.10;;
36225;SDS011;22268;52.010;4.716;2023-05-10T13:48:48;9.77;;;7.30;;
36225;SDS011;22268;52.010;4.716;2023-05-10T13:51:13;13.98;;;8.27;;
36225;SDS011;22268;52.010;4.716;2023-05-10T13:53:38;13.40;;;8.40;;
36225;SDS011;22268;52.010;4.716;2023-05-10T13:56:03;12.18;;;7.55;;
36225;SDS011;22268;52.010;4.716;2023-05-10T13:58:29;11.40;;;7.37;;
36225;SDS011;22268;52.010;4.716;2023-05-10T14:00:54;11.52;;;7.15;;
36225;SDS011;22268;52.010;4.716;2023-05-10T14:03:19;11.15;;;6.70;;
36225;SDS011;22268;52.010;4.716;2023-05-10T14:05:44;13.15;;;7.22;;
36225;SDS011;22268;52.010;4.716;2023-05-10T14:08:10;10.80;;;7.05;;
36225;SDS011;22268;52.010;4.716;2023-05-10T14:10:36;9.43;;;6.70;;
36225;SDS011;22268;52.010;4.716;2023-05-10T14:13:01;11.45;;;6.43;;
36225;SDS011;22268;52.010;4.716;2023-05-10T14:15:28;11.35;;;6.68;;
36225;SDS011;22268;52.010;4.716;2023-05-10T14:17:53;7.50;;;5.57;;
36225;SDS011;22268;52.010;4.716;2023-05-10T14:20:18;8.35;;;6.30;;
36225;SDS011;22268;52.010;4.716;2023-05-10T14:22:43;10.35;;;6.75;;
36225;SDS011;22268;52.010;4.716;2023-05-10T14:25:08;8.55;;;6.35;;
36225;SDS011;22268;52.010;4.716;2023-05-10T14:27:34;8.63;;;6.80;;
36225;SDS011;22268;52.010;4.716;2023-05-10T14:29:59;8.43;;;6.75;;
36225;SDS011;22268;52.010;4.716;2023-05-10T14:32:24;9.32;;;7.10;;
36225;SDS011;22268;52.010;4.716;2023-05-10T14:34:51;10.95;;;6.47;;
36225;SDS011;22268;52.010;4.716;2023-05-10T14:37:17;7.37;;;6.40;;
36225;SDS011;22268;52.010;4.716;2023-05-10T14:39:42;9.13;;;5.43;;
36225;SDS011;22268;52.010;4.716;2023-05-10T14:42:07;6.55;;;5.40;;
36225;SDS011;22268;52.010;4.716;2023-05-10T14:44:33;8.15;;;5.62;;
36225;SDS011;22268;52.010;4.716;2023-05-10T14:46:58;7.87;;;5.35;;
36225;SDS011;22268;52.010;4.716;2023-05-10T14:49:23;6.37;;;4.65;;
36225;SDS011;22268;52.010;4.716;2023-05-10T14:51:50;9.18;;;5.50;;
36225;SDS011;22268;52.010;4.716;2023-05-10T14:54:16;8.98;;;5.47;;
36225;SDS011;22268;52.010;4.716;2023-05-10T14:56:41;8.38;;;5.78;;
36225;SDS011;22268;52.010;4.716;2023-05-10T14:59:06;7.65;;;5.00;;
36225;SDS011;22268;52.010;4.716;2023-05-10T15:01:32;6.53;;;5.12;;
36225;SDS011;22268;52.010;4.716;2023-05-10T15:03:57;6.75;;;5.20;;
36225;SDS011;22268;52.010;4.716;2023-05-10T15:06:23;7.43;;;5.20;;
36225;SDS011;22268;52.010;4.716;2023-05-10T15:08:50;9.52;;;5.47;;
36225;SDS011;22268;52.010;4.716;2023-05-10T15:11:15;6.32;;;5.28;;
36225;SDS011;22268;52.010;4.716;2023-05-10T15:13:40;8.43;;;5.60;;
36225;SDS011;22268;52.010;4.716;2023-05-10T15:16:05;8.00;;;5.85;;